Time,TemperatureF,DewpointF,PressureIn,WindDirection,WindDirectionDegrees,WindSpeedMPH,WindSpeedGustMPH,Humidity,HourlyPrecipIn,Conditions,Clouds,dailyrainin,SoftwareType,DateUTC
2013-06-27 00:02:00,80.4,74.5,29.81,SW,225,3.0,4.0,82,0.00,,,0.00,meteohub,2013-06-27 05:02:00,
2013-06-27 00:07:00,80.2,74.3,29.81,SW,225,2.0,4.0,82,0.00,,,0.00,meteohub,2013-06-27 05:07:00,
2013-06-27 00:12:00,80.4,74.8,29.81,SSW,203,3.0,4.0,83,0.00,,,0.00,meteohub,2013-06-27 05:12:00,
2013-06-27 00:17:00,80.2,74.7,29.81,South,180,3.0,3.0,83,0.00,,,0.00,meteohub,2013-06-27 05:17:00,
2013-06-27 00:22:00,80.1,74.5,29.81,SW,225,4.0,4.0,83,0.00,,,0.00,meteohub,2013-06-27 05:22:00,
2013-06-27 00:27:00,80.1,74.5,29.81,SW,225,4.0,4.0,83,0.00,,,0.00,meteohub,2013-06-27 05:27:00,
2013-06-27 00:32:00,79.9,74.3,29.81,SW,225,2.0,4.0,83,0.00,,,0.00,meteohub,2013-06-27 05:32:00,
2013-06-27 00:37:00,80.1,74.5,29.82,SW,225,2.0,4.0,83,0.00,,,0.00,meteohub,2013-06-27 05:37:00,
2013-06-27 00:42:00,80.1,74.5,29.82,SW,225,2.0,4.0,83,0.00,,,0.00,meteohub,2013-06-27 05:42:00,
2013-06-27 00:47:00,80.1,74.5,29.82,SW,225,3.0,4.0,83,0.00,,,0.00,meteohub,2013-06-27 05:47:00,
2013-06-27 00:52:00,79.7,74.5,29.82,SW,225,4.0,4.0,84,0.00,,,0.00,meteohub,2013-06-27 05:52:00,
2013-06-27 00:57:00,79.7,74.5,29.82,South,180,2.0,4.0,84,0.00,,,0.00,meteohub,2013-06-27 05:57:00,
2013-06-27 01:02:00,79.5,74.3,29.82,SW,225,2.0,4.0,84,0.00,,,0.00,meteohub,2013-06-27 06:02:00,
2013-06-27 01:07:00,79.7,74.5,29.82,South,180,2.0,4.0,84,0.00,,,0.00,meteohub,2013-06-27 06:07:00,
2013-06-27 01:12:00,79.7,74.5,29.82,West,270,3.0,4.0,84,0.00,,,0.00,meteohub,2013-06-27 06:12:00,
2013-06-27 01:17:00,79.5,74.3,29.82,SW,225,3.0,4.0,84,0.00,,,0.00,meteohub,2013-06-27 06:17:00,
2013-06-27 01:22:00,79.3,74.1,29.82,SSE,158,2.0,3.0,84,0.00,,,0.00,meteohub,2013-06-27 06:22:00,
2013-06-27 01:27:00,79.3,74.1,29.82,WSW,248,0.0,3.0,84,0.00,,,0.00,meteohub,2013-06-27 06:27:00,
2013-06-27 01:32:00,79.2,73.9,29.82,West,270,2.0,3.0,84,0.00,,,0.00,meteohub,2013-06-27 06:32:00,
2013-06-27 01:37:00,79.2,73.9,29.83,SW,225,0.0,2.0,84,0.00,,,0.00,meteohub,2013-06-27 06:37:00,
2013-06-27 01:42:00,79.3,74.5,29.83,SSE,158,0.0,2.0,85,0.00,,,0.00,meteohub,2013-06-27 06:42:00,
2013-06-27 01:47:00,79.0,73.8,29.83,South,180,0.0,2.0,84,0.00,,,0.00,meteohub,2013-06-27 06:47:00,
2013-06-27 01:52:00,79.0,73.8,29.83,SSW,203,0.0,1.0,84,0.00,,,0.00,meteohub,2013-06-27 06:52:00,
2013-06-27 01:57:00,78.8,73.6,29.83,South,180,0.0,1.0,84,0.00,,,0.00,meteohub,2013-06-27 06:57:00,
2013-06-27 02:02:00,78.6,73.4,29.83,South,180,1.0,1.0,84,0.00,,,0.00,meteohub,2013-06-27 07:02:00,
2013-06-27 02:07:00,78.6,73.4,29.83,SW,225,0.0,2.0,84,0.00,,,0.00,meteohub,2013-06-27 07:07:00,
2013-06-27 02:12:00,78.4,73.6,29.83,SW,225,0.0,2.0,85,0.00,,,0.00,meteohub,2013-06-27 07:12:00,
2013-06-27 02:17:00,78.1,73.2,29.83,SW,225,0.0,1.0,85,0.00,,,0.00,meteohub,2013-06-27 07:17:00,
2013-06-27 02:22:00,78.3,73.4,29.83,NW,315,0.0,2.0,85,0.00,,,0.00,meteohub,2013-06-27 07:22:00,
2013-06-27 02:27:00,78.3,73.4,29.83,WSW,248,0.0,2.0,85,0.00,,,0.00,meteohub,2013-06-27 07:27:00,
2013-06-27 02:32:00,77.9,73.0,29.83,SSW,203,0.0,2.0,85,0.00,,,0.00,meteohub,2013-06-27 07:32:00,
2013-06-27 02:37:00,77.9,73.0,29.84,SE,135,0.0,1.0,85,0.00,,,0.00,meteohub,2013-06-27 07:37:00,
2013-06-27 02:42:00,77.5,72.7,29.84,ESE,113,0.0,0.0,85,0.00,,,0.00,meteohub,2013-06-27 07:42:00,
2013-06-27 02:47:00,77.5,73.0,29.84,ESE,113,0.0,0.0,86,0.00,,,0.00,meteohub,2013-06-27 07:47:00,
2013-06-27 02:52:00,77.2,72.7,29.84,SE,135,0.0,0.0,86,0.00,,,0.00,meteohub,2013-06-27 07:52:00,
2013-06-27 02:57:00,77.0,72.5,29.84,South,180,0.0,0.0,86,0.00,,,0.00,meteohub,2013-06-27 07:57:00,
2013-06-27 03:02:00,77.2,72.7,29.84,SSW,203,0.0,0.0,86,0.00,,,0.00,meteohub,2013-06-27 08:02:00,
2013-06-27 03:07:00,77.0,72.9,29.84,SE,135,0.0,2.0,87,0.00,,,0.00,meteohub,2013-06-27 08:07:00,
2013-06-27 03:12:00,76.8,72.7,29.84,SSE,158,0.0,2.0,87,0.00,,,0.00,meteohub,2013-06-27 08:12:00,
2013-06-27 03:17:00,76.6,72.5,29.84,ESE,113,0.0,0.0,87,0.00,,,0.00,meteohub,2013-06-27 08:17:00,
2013-06-27 03:22:00,76.8,72.7,29.84,SE,135,0.0,0.0,87,0.00,,,0.00,meteohub,2013-06-27 08:22:00,
2013-06-27 03:27:00,76.8,72.7,29.84,ESE,113,0.0,0.0,87,0.00,,,0.00,meteohub,2013-06-27 08:27:00,
2013-06-27 03:32:00,76.6,72.5,29.84,ESE,113,0.0,0.0,87,0.00,,,0.00,meteohub,2013-06-27 08:32:00,
2013-06-27 03:37:00,76.6,72.5,29.85,ESE,113,0.0,0.0,87,0.00,,,0.00,meteohub,2013-06-27 08:37:00,
2013-06-27 03:42:00,76.5,72.3,29.85,ENE,68,0.0,0.0,87,0.00,,,0.00,meteohub,2013-06-27 08:42:00,
2013-06-27 03:47:00,76.5,72.3,29.85,South,180,0.0,0.0,87,0.00,,,0.00,meteohub,2013-06-27 08:47:00,
2013-06-27 03:52:00,76.3,72.1,29.85,WSW,248,0.0,0.0,87,0.00,,,0.00,meteohub,2013-06-27 08:52:00,
2013-06-27 03:57:00,76.1,72.0,29.86,ESE,113,0.0,0.0,87,0.00,,,0.00,meteohub,2013-06-27 08:57:00,
2013-06-27 04:02:00,75.9,71.8,29.86,ESE,113,0.0,0.0,87,0.00,,,0.00,meteohub,2013-06-27 09:02:00,
2013-06-27 04:07:00,75.9,71.8,29.86,ESE,113,0.0,0.0,87,0.00,,,0.00,meteohub,2013-06-27 09:07:00,
2013-06-27 04:12:00,75.7,71.6,29.86,SE,135,0.0,0.0,87,0.00,,,0.00,meteohub,2013-06-27 09:12:00,
2013-06-27 04:17:00,75.6,71.4,29.87,SW,225,0.0,0.0,87,0.00,,,0.00,meteohub,2013-06-27 09:17:00,
2013-06-27 04:22:00,75.7,72.0,29.87,SW,225,0.0,0.0,88,0.00,,,0.00,meteohub,2013-06-27 09:22:00,
2013-06-27 04:27:00,75.4,71.6,29.87,ESE,113,0.0,0.0,88,0.00,,,0.00,meteohub,2013-06-27 09:27:00,
2013-06-27 04:32:00,75.4,71.6,29.87,ESE,113,0.0,0.0,88,0.00,,,0.00,meteohub,2013-06-27 09:32:00,
2013-06-27 04:37:00,75.2,71.4,29.86,ESE,113,0.0,0.0,88,0.00,,,0.00,meteohub,2013-06-27 09:37:00,
2013-06-27 04:42:00,75.2,71.4,29.86,WSW,248,0.0,0.0,88,0.00,,,0.00,meteohub,2013-06-27 09:42:00,
2013-06-27 04:47:00,75.2,71.4,29.86,SW,225,0.0,0.0,88,0.00,,,0.00,meteohub,2013-06-27 09:47:00,
2013-06-27 04:52:00,75.0,71.2,29.86,SW,225,0.0,0.0,88,0.00,,,0.00,meteohub,2013-06-27 09:52:00,
2013-06-27 04:57:00,75.0,71.2,29.87,SW,225,0.0,0.0,88,0.00,,,0.00,meteohub,2013-06-27 09:57:00,
2013-06-27 05:02:00,75.0,71.2,29.87,West,270,0.0,0.0,88,0.00,,,0.00,meteohub,2013-06-27 10:02:00,
2013-06-27 05:07:00,74.7,70.9,29.87,WSW,248,0.0,0.0,88,0.00,,,0.00,meteohub,2013-06-27 10:07:00,
2013-06-27 05:12:00,74.5,70.7,29.87,WSW,248,0.0,0.0,88,0.00,,,0.00,meteohub,2013-06-27 10:12:00,
2013-06-27 05:17:00,74.7,70.9,29.88,SW,225,0.0,0.0,88,0.00,,,0.00,meteohub,2013-06-27 10:17:00,
2013-06-27 05:22:00,74.3,70.5,29.88,ESE,113,0.0,0.0,88,0.00,,,0.00,meteohub,2013-06-27 10:22:00,
2013-06-27 05:27:00,74.3,70.9,29.88,South,180,0.0,0.0,89,0.00,,,0.00,meteohub,2013-06-27 10:27:00,
2013-06-27 05:32:00,74.3,70.9,29.88,ESE,113,0.0,0.0,89,0.00,,,0.00,meteohub,2013-06-27 10:32:00,
2013-06-27 05:37:00,73.9,70.5,29.87,ESE,113,0.0,0.0,89,0.00,,,0.00,meteohub,2013-06-27 10:37:00,
2013-06-27 05:42:00,73.9,70.5,29.87,SSW,203,0.0,0.0,89,0.00,,,0.00,meteohub,2013-06-27 10:42:00,
2013-06-27 05:47:00,73.8,70.3,29.87,West,270,0.0,0.0,89,0.00,,,0.00,meteohub,2013-06-27 10:47:00,
2013-06-27 05:52:00,73.8,70.3,29.87,SSW,203,0.0,0.0,89,0.00,,,0.00,meteohub,2013-06-27 10:52:00,
2013-06-27 05:57:00,73.6,70.2,29.88,WSW,248,0.0,0.0,89,0.00,,,0.00,meteohub,2013-06-27 10:57:00,
2013-06-27 06:02:00,73.6,70.2,29.88,NW,315,0.0,0.0,89,0.00,,,0.00,meteohub,2013-06-27 11:02:00,
2013-06-27 06:07:00,73.6,70.2,29.88,NW,315,0.0,0.0,89,0.00,,,0.00,meteohub,2013-06-27 11:07:00,
2013-06-27 06:13:00,73.2,69.8,29.88,ENE,68,0.0,0.0,89,0.00,,,0.00,meteohub,2013-06-27 11:13:00,
2013-06-27 06:18:00,73.2,69.8,29.87,ENE,68,0.0,0.0,89,0.00,,,0.00,meteohub,2013-06-27 11:18:00,
2013-06-27 06:23:00,73.2,69.8,29.87,ENE,68,0.0,0.0,89,0.00,,,0.00,meteohub,2013-06-27 11:23:00,
2013-06-27 06:28:00,73.0,69.6,29.87,West,270,0.0,0.0,89,0.00,,,0.00,meteohub,2013-06-27 11:28:00,
2013-06-27 06:33:00,73.2,69.8,29.87,West,270,0.0,0.0,89,0.00,,,0.00,meteohub,2013-06-27 11:33:00,
2013-06-27 06:38:00,73.0,69.6,29.88,West,270,0.0,0.0,89,0.00,,,0.00,meteohub,2013-06-27 11:38:00,
2013-06-27 06:43:00,73.0,69.6,29.88,SSE,158,0.0,0.0,89,0.00,,,0.00,meteohub,2013-06-27 11:43:00,
2013-06-27 06:48:00,73.2,70.2,29.88,SSE,158,0.0,0.0,90,0.00,,,0.00,meteohub,2013-06-27 11:48:00,
2013-06-27 06:53:00,73.4,70.3,29.88,SSE,158,0.0,0.0,90,0.00,,,0.00,meteohub,2013-06-27 11:53:00,
2013-06-27 06:58:00,73.4,70.3,29.88,SSE,158,0.0,0.0,90,0.00,,,0.00,meteohub,2013-06-27 11:58:00,
2013-06-27 07:03:00,73.6,70.5,29.88,NW,315,0.0,0.0,90,0.00,,,0.00,meteohub,2013-06-27 12:03:00,
2013-06-27 07:08:00,73.9,70.9,29.88,South,180,2.0,0.0,90,0.00,,,0.00,meteohub,2013-06-27 12:08:00,
2013-06-27 07:13:00,74.3,71.4,29.88,SW,225,2.0,2.0,91,0.00,,,0.00,meteohub,2013-06-27 12:13:00,
2013-06-27 07:18:00,74.5,71.6,29.87,South,180,3.0,3.0,91,0.00,,,0.00,meteohub,2013-06-27 12:18:00,
2013-06-27 07:23:00,74.7,71.8,29.87,SW,225,0.0,3.0,91,0.00,,,0.00,meteohub,2013-06-27 12:23:00,
2013-06-27 07:28:00,75.2,72.3,29.87,SSW,203,3.0,3.0,91,0.00,,,0.00,meteohub,2013-06-27 12:28:00,
2013-06-27 07:33:00,75.7,72.9,29.87,SSW,203,2.0,3.0,91,0.00,,,0.00,meteohub,2013-06-27 12:33:00,
2013-06-27 07:38:00,75.9,73.0,29.88,WSW,248,2.0,3.0,91,0.00,,,0.00,meteohub,2013-06-27 12:38:00,
2013-06-27 07:43:00,76.5,73.6,29.88,SW,225,2.0,3.0,91,0.00,,,0.00,meteohub,2013-06-27 12:43:00,
2013-06-27 07:48:00,76.8,73.9,29.88,West,270,2.0,4.0,91,0.00,,,0.00,meteohub,2013-06-27 12:48:00,
2013-06-27 07:53:00,77.0,73.8,29.88,SW,225,0.0,4.0,90,0.00,,,0.00,meteohub,2013-06-27 12:53:00,
2013-06-27 07:58:00,77.5,74.3,29.87,WSW,248,3.0,5.0,90,0.00,,,0.00,meteohub,2013-06-27 12:58:00,
2013-06-27 08:03:00,77.9,74.5,29.87,WSW,248,2.0,5.0,89,0.00,,,0.00,meteohub,2013-06-27 13:03:00,
2013-06-27 08:08:00,78.3,74.7,29.87,SW,225,2.0,4.0,89,0.00,,,0.00,meteohub,2013-06-27 13:08:00,
2013-06-27 08:13:00,78.4,74.8,29.87,NNW,338,5.0,5.0,89,0.00,,,0.00,meteohub,2013-06-27 13:13:00,
2013-06-27 08:18:00,78.8,75.0,29.88,WSW,248,6.0,6.0,88,0.00,,,0.00,meteohub,2013-06-27 13:18:00,
2013-06-27 08:23:00,79.2,75.4,29.88,West,270,3.0,6.0,88,0.00,,,0.00,meteohub,2013-06-27 13:23:00,
2013-06-27 08:28:00,79.3,75.2,29.88,NW,315,6.0,7.0,87,0.00,,,0.00,meteohub,2013-06-27 13:28:00,
2013-06-27 08:33:00,79.7,75.6,29.88,SSW,203,3.0,7.0,87,0.00,,,0.00,meteohub,2013-06-27 13:33:00,
2013-06-27 08:38:00,80.1,75.6,29.88,WSW,248,5.0,7.0,86,0.00,,,0.00,meteohub,2013-06-27 13:38:00,
2013-06-27 08:43:00,80.4,75.6,29.88,West,270,5.0,6.0,85,0.00,,,0.00,meteohub,2013-06-27 13:43:00,
2013-06-27 08:48:00,80.6,75.7,29.88,West,270,5.0,5.0,85,0.00,,,0.00,meteohub,2013-06-27 13:48:00,
2013-06-27 08:53:00,81.1,75.9,29.88,West,270,6.0,6.0,84,0.00,,,0.00,meteohub,2013-06-27 13:53:00,
2013-06-27 08:58:00,81.5,76.3,29.88,WSW,248,5.0,6.0,84,0.00,,,0.00,meteohub,2013-06-27 13:58:00,
2013-06-27 09:03:00,81.9,76.1,29.88,WNW,293,4.0,6.0,83,0.00,,,0.00,meteohub,2013-06-27 14:03:00,
2013-06-27 09:08:00,82.2,76.5,29.88,NW,315,3.0,6.0,83,0.00,,,0.00,meteohub,2013-06-27 14:08:00,
2013-06-27 09:13:00,82.4,76.3,29.88,West,270,5.0,5.0,82,0.00,,,0.00,meteohub,2013-06-27 14:13:00,
2013-06-27 09:18:00,82.4,76.3,29.87,NW,315,5.0,5.0,82,0.00,,,0.00,meteohub,2013-06-27 14:18:00,
2013-06-27 09:23:00,82.9,76.5,29.87,WSW,248,7.0,7.0,81,0.00,,,0.00,meteohub,2013-06-27 14:23:00,
2013-06-27 09:28:00,83.1,76.6,29.87,WSW,248,5.0,7.0,81,0.00,,,0.00,meteohub,2013-06-27 14:28:00,
2013-06-27 09:33:00,83.3,76.5,29.87,SW,225,9.0,9.0,80,0.00,,,0.00,meteohub,2013-06-27 14:33:00,
2013-06-27 09:38:00,83.7,76.8,29.87,SW,225,4.0,9.0,80,0.00,,,0.00,meteohub,2013-06-27 14:38:00,
2013-06-27 09:43:00,83.7,76.8,29.87,WNW,293,6.0,9.0,80,0.00,,,0.00,meteohub,2013-06-27 14:43:00,
2013-06-27 09:48:00,83.8,76.6,29.87,NW,315,4.0,9.0,79,0.00,,,0.00,meteohub,2013-06-27 14:48:00,
2013-06-27 09:53:00,84.4,77.2,29.87,West,270,2.0,6.0,79,0.00,,,0.00,meteohub,2013-06-27 14:53:00,
2013-06-27 09:58:00,84.2,77.0,29.87,WSW,248,5.0,7.0,79,0.00,,,0.00,meteohub,2013-06-27 14:58:00,
2013-06-27 10:03:00,84.4,77.2,29.87,WSW,248,6.0,7.0,79,0.00,,,0.00,meteohub,2013-06-27 15:03:00,
2013-06-27 10:08:00,84.7,77.2,29.87,NW,315,5.0,7.0,78,0.00,,,0.00,meteohub,2013-06-27 15:08:00,
2013-06-27 10:13:00,84.7,77.2,29.87,West,270,4.0,7.0,78,0.00,,,0.00,meteohub,2013-06-27 15:13:00,
2013-06-27 10:18:00,84.7,77.2,29.88,WNW,293,6.0,7.0,78,0.00,,,0.00,meteohub,2013-06-27 15:18:00,
2013-06-27 10:23:00,85.1,77.5,29.88,WSW,248,3.0,7.0,78,0.00,,,0.00,meteohub,2013-06-27 15:23:00,
2013-06-27 10:28:00,85.5,77.7,29.88,WSW,248,6.0,7.0,78,0.00,,,0.00,meteohub,2013-06-27 15:28:00,
2013-06-27 10:33:00,85.6,77.9,29.88,East,90,4.0,7.0,78,0.00,,,0.00,meteohub,2013-06-27 15:33:00,
2013-06-27 10:38:00,85.8,77.7,29.88,South,180,6.0,6.0,77,0.00,,,0.00,meteohub,2013-06-27 15:38:00,
2013-06-27 10:43:00,86.2,78.1,29.88,West,270,5.0,9.0,77,0.00,,,0.00,meteohub,2013-06-27 15:43:00,
2013-06-27 10:48:00,86.2,78.1,29.88,NW,315,4.0,9.0,77,0.00,,,0.00,meteohub,2013-06-27 15:48:00,
2013-06-27 10:53:00,86.2,78.1,29.88,West,270,6.0,9.0,77,0.00,,,0.00,meteohub,2013-06-27 15:53:00,
2013-06-27 10:58:00,86.4,78.3,29.88,West,270,8.0,8.0,77,0.00,,,0.00,meteohub,2013-06-27 15:58:00,
2013-06-27 11:03:00,86.5,78.1,29.88,WNW,293,4.0,8.0,76,0.00,,,0.00,meteohub,2013-06-27 16:03:00,
2013-06-27 11:08:00,86.7,78.3,29.88,SW,225,6.0,9.0,76,0.00,,,0.00,meteohub,2013-06-27 16:08:00,
2013-06-27 11:13:00,86.9,78.4,29.88,WSW,248,7.0,9.0,76,0.00,,,0.00,meteohub,2013-06-27 16:13:00,
2013-06-27 11:18:00,87.3,78.8,29.88,WSW,248,8.0,9.0,76,0.00,,,0.00,meteohub,2013-06-27 16:18:00,
2013-06-27 11:24:00,87.3,78.8,29.88,WSW,248,2.0,7.0,76,0.00,,,0.00,meteohub,2013-06-27 16:24:00,
2013-06-27 11:28:00,87.4,79.0,29.88,NW,315,5.0,8.0,76,0.00,,,0.00,meteohub,2013-06-27 16:28:00,
2013-06-27 11:34:00,87.4,78.6,29.88,WSW,248,5.0,8.0,75,0.00,,,0.00,meteohub,2013-06-27 16:34:00,
2013-06-27 11:39:00,87.6,78.6,29.87,SW,225,4.0,6.0,75,0.00,,,0.00,meteohub,2013-06-27 16:39:00,
2013-06-27 11:44:00,87.8,78.8,29.87,SSW,203,6.0,6.0,75,0.00,,,0.00,meteohub,2013-06-27 16:44:00,
2013-06-27 11:49:00,88.0,78.6,29.87,WSW,248,4.0,5.0,74,0.00,,,0.00,meteohub,2013-06-27 16:49:00,
2013-06-27 11:54:00,88.0,78.6,29.87,WSW,248,3.0,6.0,74,0.00,,,0.00,meteohub,2013-06-27 16:54:00,
2013-06-27 11:59:00,88.0,78.6,29.87,WNW,293,5.0,6.0,74,0.00,,,0.00,meteohub,2013-06-27 16:59:00,
2013-06-27 12:04:00,88.3,79.0,29.86,WSW,248,4.0,7.0,74,0.00,,,0.00,meteohub,2013-06-27 17:04:00,
2013-06-27 12:09:00,88.3,79.0,29.86,West,270,5.0,7.0,74,0.00,,,0.00,meteohub,2013-06-27 17:09:00,
2013-06-27 12:14:00,88.7,79.3,29.86,West,270,4.0,7.0,74,0.00,,,0.00,meteohub,2013-06-27 17:14:00,
2013-06-27 12:19:00,88.7,79.0,29.87,WSW,248,4.0,6.0,73,0.00,,,0.00,meteohub,2013-06-27 17:19:00,
2013-06-27 12:24:00,88.9,79.2,29.87,West,270,8.0,8.0,73,0.00,,,0.00,meteohub,2013-06-27 17:24:00,
2013-06-27 12:29:00,89.1,79.3,29.87,WSW,248,3.0,4.0,73,0.00,,,0.00,meteohub,2013-06-27 17:29:00,
2013-06-27 12:34:00,88.9,79.2,29.87,WNW,293,5.0,8.0,73,0.00,,,0.00,meteohub,2013-06-27 17:34:00,
2013-06-27 12:39:00,89.1,79.3,29.87,WSW,248,2.0,8.0,73,0.00,,,0.00,meteohub,2013-06-27 17:39:00,
2013-06-27 12:44:00,89.2,79.0,29.87,West,270,3.0,7.0,72,0.00,,,0.00,meteohub,2013-06-27 17:44:00,
2013-06-27 12:49:00,89.4,79.2,29.87,SW,225,6.0,7.0,72,0.00,,,0.00,meteohub,2013-06-27 17:49:00,
2013-06-27 12:54:00,89.4,78.8,29.87,WSW,248,4.0,8.0,71,0.00,,,0.00,meteohub,2013-06-27 17:54:00,
2013-06-27 12:59:00,89.4,79.2,29.87,WSW,248,6.0,8.0,72,0.00,,,0.00,meteohub,2013-06-27 17:59:00,
2013-06-27 13:04:00,89.8,78.6,29.86,South,180,6.0,8.0,70,0.00,,,0.00,meteohub,2013-06-27 18:04:00,
2013-06-27 13:09:00,89.8,78.3,29.86,WSW,248,7.0,8.0,69,0.00,,,0.00,meteohub,2013-06-27 18:09:00,
2013-06-27 13:14:00,90.0,78.8,29.86,NNW,338,4.0,8.0,70,0.00,,,0.00,meteohub,2013-06-27 18:14:00,
2013-06-27 13:19:00,90.5,79.3,29.87,WSW,248,5.0,7.0,70,0.00,,,0.00,meteohub,2013-06-27 18:19:00,
2013-06-27 13:24:00,90.5,79.3,29.87,WSW,248,6.0,7.0,70,0.00,,,0.00,meteohub,2013-06-27 18:24:00,
2013-06-27 13:29:00,90.5,79.3,29.87,West,270,6.0,6.0,70,0.00,,,0.00,meteohub,2013-06-27 18:29:00,
2013-06-27 13:34:00,90.9,79.7,29.87,South,180,0.0,6.0,70,0.00,,,0.00,meteohub,2013-06-27 18:34:00,
2013-06-27 13:39:00,90.9,80.1,29.86,WSW,248,0.0,6.0,71,0.00,,,0.00,meteohub,2013-06-27 18:39:00,
2013-06-27 13:44:00,91.0,79.9,29.86,WSW,248,0.0,6.0,70,0.00,,,0.00,meteohub,2013-06-27 18:44:00,
2013-06-27 13:49:00,91.2,80.1,29.86,SW,225,6.0,6.0,70,0.00,,,0.00,meteohub,2013-06-27 18:49:00,
2013-06-27 13:54:00,91.2,79.7,29.86,WSW,248,7.0,7.0,69,0.00,,,0.00,meteohub,2013-06-27 18:54:00,
2013-06-27 13:59:00,91.6,79.9,29.85,West,270,6.0,7.0,69,0.00,,,0.00,meteohub,2013-06-27 18:59:00,
2013-06-27 14:04:00,91.8,80.1,29.85,WSW,248,3.0,7.0,69,0.00,,,0.00,meteohub,2013-06-27 19:04:00,
2013-06-27 14:09:00,91.9,80.2,29.85,NNE,23,0.0,7.0,69,0.00,,,0.00,meteohub,2013-06-27 19:09:00,
2013-06-27 14:14:00,92.1,81.0,29.85,NW,315,2.0,7.0,70,0.00,,,0.00,meteohub,2013-06-27 19:14:00,
2013-06-27 14:19:00,92.3,80.6,29.85,West,270,3.0,7.0,69,0.00,,,0.00,meteohub,2013-06-27 19:19:00,
2013-06-27 14:24:00,92.5,80.4,29.85,West,270,8.0,8.0,68,0.00,,,0.00,meteohub,2013-06-27 19:24:00,
2013-06-27 14:29:00,92.7,80.1,29.85,West,270,4.0,4.0,67,0.00,,,0.00,meteohub,2013-06-27 19:29:00,
2013-06-27 14:34:00,92.8,79.9,29.85,West,270,3.0,8.0,66,0.00,,,0.00,meteohub,2013-06-27 19:34:00,
2013-06-27 14:39:00,92.8,80.2,29.85,SSE,158,0.0,8.0,67,0.00,,,0.00,meteohub,2013-06-27 19:39:00,
2013-06-27 14:44:00,93.0,80.4,29.84,WSW,248,3.0,5.0,67,0.00,,,0.00,meteohub,2013-06-27 19:44:00,
2013-06-27 14:49:00,93.0,80.4,29.84,WNW,293,6.0,6.0,67,0.00,,,0.00,meteohub,2013-06-27 19:49:00,
2013-06-27 14:54:00,93.0,80.4,29.84,SW,225,4.0,5.0,67,0.00,,,0.00,meteohub,2013-06-27 19:54:00,
2013-06-27 14:59:00,93.0,79.9,29.85,NW,315,3.0,6.0,66,0.00,,,0.00,meteohub,2013-06-27 19:59:00,
2013-06-27 15:04:00,92.8,80.2,29.85,West,270,5.0,6.0,67,0.00,,,0.00,meteohub,2013-06-27 20:04:00,
2013-06-27 15:09:00,93.0,80.4,29.85,WNW,293,5.0,7.0,67,0.00,,,0.00,meteohub,2013-06-27 20:09:00,
2013-06-27 15:14:00,93.2,80.1,29.85,West,270,2.0,7.0,66,0.00,,,0.00,meteohub,2013-06-27 20:14:00,
2013-06-27 15:19:00,93.2,80.1,29.87,WNW,293,2.0,7.0,66,0.00,,,0.00,meteohub,2013-06-27 20:19:00,
2013-06-27 15:24:00,93.4,79.9,29.87,NW,315,4.0,5.0,65,0.00,,,0.00,meteohub,2013-06-27 20:24:00,
2013-06-27 15:30:00,93.7,80.2,29.87,WNW,293,0.0,5.0,65,0.00,,,0.00,meteohub,2013-06-27 20:30:00,
2013-06-27 15:35:00,94.1,80.6,29.87,WSW,248,4.0,6.0,65,0.00,,,0.00,meteohub,2013-06-27 20:35:00,
2013-06-27 15:40:00,94.3,80.8,29.87,NE,45,0.0,6.0,65,0.00,,,0.00,meteohub,2013-06-27 20:40:00,
2013-06-27 15:45:00,94.3,80.8,29.87,ENE,68,0.0,6.0,65,0.00,,,0.00,meteohub,2013-06-27 20:45:00,
2013-06-27 15:51:00,94.3,80.8,29.87,WSW,248,0.0,4.0,65,0.00,,,0.00,meteohub,2013-06-27 20:51:00,
2013-06-27 15:56:00,93.7,80.2,29.85,East,90,0.0,0.0,65,0.00,,,0.00,meteohub,2013-06-27 20:56:00,
2013-06-27 16:01:00,93.4,80.2,29.85,WNW,293,0.0,0.0,66,0.00,,,0.00,meteohub,2013-06-27 21:01:00,
2013-06-27 16:06:00,92.8,80.2,29.85,ESE,113,0.0,0.0,67,0.00,,,0.00,meteohub,2013-06-27 21:06:00,
2013-06-27 16:11:00,92.7,80.1,29.85,WSW,248,0.0,0.0,67,0.00,,,0.00,meteohub,2013-06-27 21:11:00,
2013-06-27 16:16:00,92.5,79.9,29.84,SE,135,0.0,0.0,67,0.00,,,0.00,meteohub,2013-06-27 21:16:00,
2013-06-27 16:22:00,92.5,80.4,29.84,NW,315,2.0,0.0,68,0.00,,,0.00,meteohub,2013-06-27 21:22:00,
2013-06-27 16:27:00,92.5,79.9,29.84,WSW,248,0.0,2.0,67,0.00,,,0.00,meteohub,2013-06-27 21:27:00,
2013-06-27 16:32:00,92.7,80.6,29.84,SW,225,0.0,2.0,68,0.00,,,0.00,meteohub,2013-06-27 21:32:00,
2013-06-27 16:37:00,92.8,80.2,29.84,ESE,113,0.0,2.0,67,0.00,,,0.00,meteohub,2013-06-27 21:37:00,
2013-06-27 16:42:00,92.8,80.8,29.84,SSE,158,0.0,1.0,68,0.00,,,0.00,meteohub,2013-06-27 21:42:00,
2013-06-27 16:47:00,92.8,80.8,29.84,SW,225,1.0,1.0,68,0.00,,,0.00,meteohub,2013-06-27 21:47:00,
2013-06-27 16:52:00,93.0,80.4,29.84,SE,135,0.0,1.0,67,0.00,,,0.00,meteohub,2013-06-27 21:52:00,
2013-06-27 16:57:00,93.0,80.4,29.82,SE,135,0.0,1.0,67,0.00,,,0.00,meteohub,2013-06-27 21:57:00,
2013-06-27 17:02:00,92.7,80.1,29.82,East,90,0.0,1.0,67,0.00,,,0.00,meteohub,2013-06-27 22:02:00,
2013-06-27 17:07:00,92.3,79.7,29.83,ENE,68,0.0,0.0,67,0.00,,,0.00,meteohub,2013-06-27 22:07:00,
2013-06-27 17:12:00,92.3,79.7,29.83,ESE,113,0.0,0.0,67,0.00,,,0.00,meteohub,2013-06-27 22:12:00,
2013-06-27 17:17:00,92.5,79.9,29.83,ESE,113,0.0,0.0,67,0.00,,,0.00,meteohub,2013-06-27 22:17:00,
2013-06-27 17:22:00,92.5,80.4,29.83,ESE,113,0.0,0.0,68,0.00,,,0.00,meteohub,2013-06-27 22:22:00,
2013-06-27 17:28:00,92.1,79.5,29.83,SE,135,0.0,0.0,67,0.00,,,0.00,meteohub,2013-06-27 22:28:00,
2013-06-27 17:33:00,91.9,79.3,29.83,East,90,0.0,0.0,67,0.00,,,0.00,meteohub,2013-06-27 22:33:00,
2013-06-27 17:38:00,91.6,80.4,29.81,ESE,113,0.0,0.0,70,0.00,,,0.00,meteohub,2013-06-27 22:38:00,
2013-06-27 17:43:00,91.6,80.8,29.81,SSE,158,0.0,0.0,71,0.00,,,0.00,meteohub,2013-06-27 22:43:00,
2013-06-27 17:48:00,91.4,80.6,29.81,SSE,158,0.0,0.0,71,0.00,,,0.00,meteohub,2013-06-27 22:48:00,
2013-06-27 17:53:00,91.6,81.3,29.81,NE,45,0.0,0.0,72,0.00,,,0.00,meteohub,2013-06-27 22:53:00,
2013-06-27 17:58:00,91.6,81.3,29.80,NNE,23,0.0,0.0,72,0.00,,,0.00,meteohub,2013-06-27 22:58:00,
2013-06-27 18:03:00,91.8,81.5,29.80,NNE,23,0.0,0.0,72,0.00,,,0.00,meteohub,2013-06-27 23:03:00,
2013-06-27 18:08:00,91.9,81.1,29.79,East,90,0.0,2.0,71,0.00,,,0.00,meteohub,2013-06-27 23:08:00,
2013-06-27 18:13:00,91.8,81.0,29.80,ESE,113,2.0,2.0,71,0.00,,,0.00,meteohub,2013-06-27 23:13:00,
2013-06-27 18:19:00,91.8,81.0,29.78,ESE,113,1.0,2.0,71,0.00,,,0.00,meteohub,2013-06-27 23:19:00,
2013-06-27 18:24:00,91.8,81.0,29.78,SE,135,0.0,2.0,71,0.00,,,0.00,meteohub,2013-06-27 23:24:00,
2013-06-27 18:29:00,92.3,81.5,29.78,ESE,113,0.0,2.0,71,0.00,,,0.00,meteohub,2013-06-27 23:29:00,
2013-06-27 18:35:00,92.3,81.1,29.78,SE,135,0.0,2.0,70,0.00,,,0.00,meteohub,2013-06-27 23:35:00,
2013-06-27 18:40:00,91.9,80.8,29.77,SSE,158,0.0,2.0,70,0.00,,,0.00,meteohub,2013-06-27 23:40:00,
2013-06-27 18:45:00,91.9,80.8,29.77,East,90,0.0,0.0,70,0.00,,,0.00,meteohub,2013-06-27 23:45:00,
2013-06-27 18:50:00,91.8,81.0,29.77,ESE,113,0.0,0.0,71,0.00,,,0.00,meteohub,2013-06-27 23:50:00,
2013-06-27 18:55:00,91.9,81.1,29.75,ESE,113,2.0,0.0,71,0.00,,,0.00,meteohub,2013-06-27 23:55:00,
2013-06-27 19:00:00,91.6,80.8,29.75,ESE,113,0.0,2.0,71,0.00,,,0.00,meteohub,2013-06-28 00:00:00,
2013-06-27 19:05:00,91.4,80.2,29.75,SE,135,0.0,2.0,70,0.00,,,0.00,meteohub,2013-06-28 00:05:00,
2013-06-27 19:11:00,91.2,80.1,29.75,ESE,113,0.0,2.0,70,0.00,,,0.00,meteohub,2013-06-28 00:11:00,
2013-06-27 19:16:00,90.7,80.4,29.77,SE,135,0.0,0.0,72,0.00,,,0.00,meteohub,2013-06-28 00:16:00,
2013-06-27 19:21:00,90.3,80.1,29.77,SE,135,0.0,0.0,72,0.00,,,0.00,meteohub,2013-06-28 00:21:00,
2013-06-27 19:27:00,90.1,79.9,29.77,ESE,113,0.0,0.0,72,0.00,,,0.00,meteohub,2013-06-28 00:27:00,
2013-06-27 19:32:00,89.6,79.7,29.77,ESE,113,0.0,0.0,73,0.00,,,0.00,meteohub,2013-06-28 00:32:00,
2013-06-27 19:37:00,89.4,79.7,29.77,SE,135,0.0,0.0,73,0.00,,,0.00,meteohub,2013-06-28 00:37:00,
2013-06-27 19:42:00,89.4,80.1,29.77,SE,135,0.0,0.0,74,0.00,,,0.00,meteohub,2013-06-28 00:42:00,
2013-06-27 19:47:00,88.9,79.5,29.77,SE,135,0.0,0.0,74,0.00,,,0.00,meteohub,2013-06-28 00:47:00,
2013-06-27 19:52:00,88.9,79.5,29.77,ESE,113,0.0,0.0,74,0.00,,,0.00,meteohub,2013-06-28 00:52:00,
2013-06-27 19:57:00,88.7,79.3,29.75,SE,135,0.0,0.0,74,0.00,,,0.00,meteohub,2013-06-28 00:57:00,
2013-06-27 20:02:00,88.7,79.3,29.75,ESE,113,0.0,0.0,74,0.00,,,0.00,meteohub,2013-06-28 01:02:00,
2013-06-27 20:07:00,88.3,79.0,29.76,ESE,113,0.0,0.0,74,0.00,,,0.00,meteohub,2013-06-28 01:07:00,
2013-06-27 20:12:00,88.2,79.2,29.76,South,180,0.0,0.0,75,0.00,,,0.00,meteohub,2013-06-28 01:12:00,
2013-06-27 20:17:00,88.0,79.5,29.77,SSE,158,0.0,0.0,76,0.00,,,0.00,meteohub,2013-06-28 01:17:00,
2013-06-27 20:22:00,87.6,79.2,29.77,SSE,158,0.0,0.0,76,0.00,,,0.00,meteohub,2013-06-28 01:22:00,
2013-06-27 20:27:00,87.3,78.8,29.77,South,180,0.0,0.0,76,0.00,,,0.00,meteohub,2013-06-28 01:27:00,
2013-06-27 20:32:00,87.1,79.0,29.77,South,180,0.0,0.0,77,0.00,,,0.00,meteohub,2013-06-28 01:32:00,
2013-06-27 20:37:00,86.9,78.8,29.77,SE,135,0.0,0.0,77,0.00,,,0.00,meteohub,2013-06-28 01:37:00,
2013-06-27 20:42:00,86.5,78.4,29.77,South,180,0.0,0.0,77,0.00,,,0.00,meteohub,2013-06-28 01:42:00,
2013-06-27 20:47:00,86.2,78.4,29.78,South,180,0.0,0.0,78,0.00,,,0.00,meteohub,2013-06-28 01:47:00,
2013-06-27 20:54:00,86.0,78.3,29.78,SE,135,0.0,0.0,78,0.00,,,0.00,meteohub,2013-06-28 01:54:00,
2013-06-27 20:59:00,85.6,77.9,29.78,SE,135,0.0,0.0,78,0.00,,,0.00,meteohub,2013-06-28 01:59:00,
2013-06-27 21:04:00,85.5,78.3,29.78,SE,135,0.0,0.0,79,0.00,,,0.00,meteohub,2013-06-28 02:04:00,
2013-06-27 21:09:00,85.3,78.1,29.79,SE,135,0.0,0.0,79,0.00,,,0.00,meteohub,2013-06-28 02:09:00,
2013-06-27 21:14:00,85.1,78.3,29.79,SE,135,0.0,0.0,80,0.00,,,0.00,meteohub,2013-06-28 02:14:00,
2013-06-27 21:19:00,85.1,78.3,29.79,South,180,0.0,0.0,80,0.00,,,0.00,meteohub,2013-06-28 02:19:00,
2013-06-27 21:24:00,84.6,77.7,29.79,ESE,113,0.0,0.0,80,0.00,,,0.00,meteohub,2013-06-28 02:24:00,
2013-06-27 21:29:00,84.4,77.9,29.79,ESE,113,0.0,0.0,81,0.00,,,0.00,meteohub,2013-06-28 02:29:00,
2013-06-27 21:35:00,84.2,77.7,29.79,SE,135,0.0,0.0,81,0.00,,,0.00,meteohub,2013-06-28 02:35:00,
2013-06-27 21:40:00,84.2,77.7,29.80,South,180,0.0,0.0,81,0.00,,,0.00,meteohub,2013-06-28 02:40:00,
2013-06-27 21:46:00,83.8,77.4,29.80,South,180,0.0,0.0,81,0.00,,,0.00,meteohub,2013-06-28 02:46:00,
2013-06-27 21:51:00,83.8,77.7,29.80,SE,135,0.0,0.0,82,0.00,,,0.00,meteohub,2013-06-28 02:51:00,
2013-06-27 21:56:00,83.7,77.5,29.80,SE,135,0.0,0.0,82,0.00,,,0.00,meteohub,2013-06-28 02:56:00,
2013-06-27 22:01:00,83.7,77.5,29.80,South,180,0.0,0.0,82,0.00,,,0.00,meteohub,2013-06-28 03:01:00,
2013-06-27 22:07:00,83.7,77.9,29.80,South,180,0.0,0.0,83,0.00,,,0.00,meteohub,2013-06-28 03:07:00,
2013-06-27 22:12:00,83.7,77.9,29.80,SW,225,2.0,2.0,83,0.00,,,0.00,meteohub,2013-06-28 03:12:00,
2013-06-27 22:17:00,83.7,77.9,29.81,SW,225,3.0,3.0,83,0.00,,,0.00,meteohub,2013-06-28 03:17:00,
2013-06-27 22:22:00,83.8,78.1,29.81,WSW,248,1.0,3.0,83,0.00,,,0.00,meteohub,2013-06-28 03:22:00,
2013-06-27 22:28:00,84.0,78.3,29.81,SW,225,2.0,3.0,83,0.00,,,0.00,meteohub,2013-06-28 03:28:00,
2013-06-27 22:33:00,83.8,78.1,29.81,SSW,203,2.0,3.0,83,0.00,,,0.00,meteohub,2013-06-28 03:33:00,
2013-06-27 22:38:00,84.0,78.3,29.81,South,180,2.0,4.0,83,0.00,,,0.00,meteohub,2013-06-28 03:38:00,
2013-06-27 22:43:00,84.0,78.3,29.81,WSW,248,3.0,4.0,83,0.00,,,0.00,meteohub,2013-06-28 03:43:00,
2013-06-27 22:48:00,84.0,78.3,29.81,ESE,113,0.0,4.0,83,0.00,,,0.00,meteohub,2013-06-28 03:48:00,
2013-06-27 22:53:00,83.8,77.7,29.81,ESE,113,0.0,4.0,82,0.00,,,0.00,meteohub,2013-06-28 03:53:00,
2013-06-27 22:58:00,83.8,77.7,29.81,ESE,113,0.0,4.0,82,0.00,,,0.00,meteohub,2013-06-28 03:58:00,
2013-06-27 23:01:00,83.7,77.9,29.81,ESE,113,0.0,2.0,83,0.00,,,0.00,meteohub,2013-06-28 04:01:00,
2013-06-27 23:02:00,83.7,77.9,29.81,ESE,113,0.0,2.0,83,0.00,,,0.00,meteohub,2013-06-28 04:02:00,
2013-06-27 23:07:00,83.7,77.9,29.81,ESE,113,0.0,0.0,83,0.00,,,0.00,meteohub,2013-06-28 04:07:00,
2013-06-27 23:12:00,83.7,77.9,29.81,ESE,113,0.0,0.0,83,0.00,,,0.00,meteohub,2013-06-28 04:12:00,
2013-06-27 23:17:00,83.7,77.9,29.81,ESE,113,0.0,0.0,83,0.00,,,0.00,meteohub,2013-06-28 04:17:00,
2013-06-27 23:22:00,83.7,77.9,29.81,SE,135,0.0,0.0,83,0.00,,,0.00,meteohub,2013-06-28 04:22:00,
2013-06-27 23:27:00,83.7,77.9,29.81,SE,135,0.0,0.0,83,0.00,,,0.00,meteohub,2013-06-28 04:27:00,
2013-06-27 23:32:00,83.5,77.7,29.81,SE,135,0.0,0.0,83,0.00,,,0.00,meteohub,2013-06-28 04:32:00,
2013-06-27 23:37:00,83.5,77.7,29.79,SSE,158,0.0,0.0,83,0.00,,,0.00,meteohub,2013-06-28 04:37:00,
2013-06-27 23:42:00,83.3,77.5,29.79,ESE,113,0.0,1.0,83,0.00,,,0.00,meteohub,2013-06-28 04:42:00,
2013-06-27 23:47:00,83.1,77.4,29.79,South,180,0.0,1.0,83,0.00,,,0.00,meteohub,2013-06-28 04:47:00,
2013-06-27 23:52:00,83.3,77.5,29.79,South,180,0.0,2.0,83,0.00,,,0.00,meteohub,2013-06-28 04:52:00,
2013-06-27 23:57:00,83.3,77.5,29.77,West,270,0.0,2.0,83,0.00,,,0.00,meteohub,2013-06-28 04:57:00,